Time;durP1;ratioP1;P1;durP2;ratioP2;P2;SDS_P1;SDS_P2;PMS_P1;PMS_P2;Temp;Humidity;BMP_temperature;BMP_pressure;BME280_temperature;BME280_humidity;BME280_pressure;Samples;Min_cycle;Max_cycle;Signal;HPM_P1;HPM_P2
2022/04/04 00:01:51;;;;;;;6.82;2.55;;;;;;;0.87;67.73;100341.34;4992773;28;20133;-63
2022/04/04 00:04:20;;;;;;;9.07;3.60;;;;;;;0.87;67.67;100342.22;4993226;28;20046;-63
2022/04/04 00:06:49;;;;;;;6.43;3.00;;;;;;;0.90;67.34;100334.63;4993493;28;20046;-63
2022/04/04 00:09:17;;;;;;;7.15;2.83;;;;;;;0.94;67.06;100328.75;4993861;28;20058;-63
2022/04/04 00:11:44;;;;;;;7.18;2.83;;;;;;;1.00;67.08;100327.19;4993187;28;20053;-63
2022/04/04 00:14:12;;;;;;;6.88;2.80;;;;;;;1.04;67.13;100319.66;4993356;28;20069;-63
2022/04/04 00:16:40;;;;;;;7.05;3.00;;;;;;;1.08;67.00;100321.47;4993549;28;20058;-63
2022/04/04 00:19:08;;;;;;;5.65;2.78;;;;;;;1.14;67.01;100321.59;4993844;28;20060;-63
2022/04/04 00:21:36;;;;;;;5.78;2.92;;;;;;;1.16;67.03;100308.88;4993643;28;20595;-63
2022/04/04 00:24:05;;;;;;;5.68;2.88;;;;;;;1.15;67.54;100312.25;4993839;28;20145;-63
2022/04/04 00:26:32;;;;;;;4.90;2.40;;;;;;;1.14;67.17;100306.28;4993631;28;20061;-63
2022/04/04 00:29:00;;;;;;;5.40;2.42;;;;;;;1.11;67.65;100298.56;4993356;28;20054;-63
2022/04/04 00:31:28;;;;;;;6.68;2.60;;;;;;;1.07;68.40;100288.25;4993630;28;20065;-63
2022/04/04 00:33:56;;;;;;;7.32;2.83;;;;;;;1.04;69.33;100289.03;4993789;28;20050;-63
2022/04/04 00:36:24;;;;;;;5.13;2.47;;;;;;;1.07;69.55;100290.78;4993152;28;20062;-63
2022/04/04 00:38:52;;;;;;;7.45;2.45;;;;;;;1.06;70.03;100291.63;5001292;28;20057;-62
2022/04/04 00:41:21;;;;;;;5.43;2.30;;;;;;;1.07;70.14;100290.78;5013347;28;20046;-63
2022/04/04 00:43:52;;;;;;;5.57;2.40;;;;;;;1.05;70.36;100285.66;5012877;28;20092;-63
2022/04/04 00:46:19;;;;;;;6.32;2.47;;;;;;;1.06;70.72;100282.28;4993812;28;20097;-63
2022/04/04 00:48:47;;;;;;;4.28;2.20;;;;;;;1.07;70.67;100271.22;4993709;28;20065;-63
2022/04/04 00:51:15;;;;;;;6.85;2.08;;;;;;;1.05;71.71;100257.56;4993114;28;20054;-63
2022/04/04 00:53:44;;;;;;;4.93;2.72;;;;;;;1.00;72.72;100251.47;4993704;28;20058;-63
2022/04/04 00:56:13;;;;;;;3.63;2.33;;;;;;;0.99;72.84;100244.66;4993626;28;20050;-63
2022/04/04 00:58:42;;;;;;;5.00;2.58;;;;;;;1.00;73.62;100260.81;4993610;28;20047;-63
2022/04/04 01:01:10;;;;;;;4.20;2.28;;;;;;;1.03;73.82;100259.19;4993562;28;20053;-63
2022/04/04 01:03:38;;;;;;;4.00;2.45;;;;;;;1.05;74.46;100255.03;4993197;28;20054;-63
2022/04/04 01:06:06;;;;;;;4.60;2.38;;;;;;;1.10;74.90;100238.13;4992946;28;20101;-63
2022/04/04 01:08:34;;;;;;;4.38;2.58;;;;;;;1.15;75.14;100239.06;4993094;28;20058;-62
2022/04/04 01:11:02;;;;;;;5.43;3.05;;;;;;;1.23;75.20;100236.69;4993073;28;20062;-63
2022/04/04 01:13:29;;;;;;;5.72;2.80;;;;;;;1.24;76.08;100236.72;4993148;28;20423;-63
2022/04/04 01:15:58;;;;;;;5.65;3.10;;;;;;;1.30;76.18;100235.13;4993287;28;20050;-63
2022/04/04 01:18:26;;;;;;;6.50;2.78;;;;;;;1.32;76.55;100238.56;4993260;28;20065;-63
2022/04/04 01:20:53;;;;;;;4.88;3.20;;;;;;;1.41;76.73;100233.66;4993283;28;20062;-63
2022/04/04 01:23:24;;;;;;;6.05;2.90;;;;;;;1.49;76.64;100225.31;4992822;28;20391;-63
2022/04/04 01:25:56;;;;;;;6.13;2.95;;;;;;;1.56;76.31;100226.28;4995318;28;20058;-63
2022/04/04 01:28:24;;;;;;;5.32;2.92;;;;;;;1.63;76.53;100222.19;4997032;28;20058;-63
2022/04/04 01:30:52;;;;;;;6.07;3.33;;;;;;;1.59;77.28;100216.16;4996646;28;20062;-63
2022/04/04 01:33:21;;;;;;;5.47;3.55;;;;;;;1.65;77.71;100223.94;4996340;28;20541;-63
2022/04/04 01:35:48;;;;;;;6.80;4.07;;;;;;;1.69;78.63;100214.63;4995993;28;20486;-63
2022/04/04 01:38:16;;;;;;;6.35;3.53;;;;;;;1.59;81.07;100216.16;4999639;28;20057;-63
2022/04/04 01:40:44;;;;;;;8.35;3.80;;;;;;;1.53;82.69;100208.34;5016280;28;20060;-63
2022/04/04 01:43:13;;;;;;;6.13;4.05;;;;;;;1.49;83.70;100206.56;5015521;28;20065;-63
2022/04/04 01:48:35;;;;;;;9.02;4.45;;;;;;;1.33;85.52;100189.22;4981236;28;20073;-63
2022/04/04 01:51:03;;;;;;;9.48;4.75;;;;;;;1.31;85.75;100186.63;4996092;28;20470;-63
2022/04/04 01:53:32;;;;;;;4.80;3.83;;;;;;;1.29;86.31;100183.19;4996571;28;20054;-63
2022/04/04 01:56:03;;;;;;;8.80;4.68;;;;;;;1.27;86.31;100185.72;4996586;28;20069;-63
2022/04/04 01:58:34;;;;;;;6.90;4.38;;;;;;;1.26;86.44;100178.88;4977052;28;20092;-63
2022/04/04 02:01:03;;;;;;;8.18;4.40;;;;;;;1.23;86.81;100171.16;4986953;28;20089;-63
2022/04/04 02:03:32;;;;;;;9.35;4.38;;;;;;;1.22;86.90;100169.44;4996408;28;20126;-63
2022/04/04 02:06:00;;;;;;;7.10;4.70;;;;;;;1.27;86.65;100170.38;4996216;28;20061;-63
2022/04/04 02:08:31;;;;;;;7.78;4.65;;;;;;;1.32;86.42;100167.06;4995486;28;20484;-63
2022/04/04 02:10:59;;;;;;;7.10;4.30;;;;;;;1.36;86.35;100159.50;4996075;28;20057;-63
2022/04/04 02:13:28;;;;;;;5.45;3.92;;;;;;;1.40;86.25;100151.06;4976813;28;20063;-63
2022/04/04 02:16:00;;;;;;;8.60;4.85;;;;;;;1.43;86.09;100161.31;4976740;28;20053;-63
2022/04/04 02:18:28;;;;;;;14.55;6.28;;;;;;;1.47;86.25;100152.88;4995740;28;20093;-63
2022/04/04 02:20:56;;;;;;;8.27;4.78;;;;;;;1.51;86.04;100153.81;4995902;28;20054;-63
2022/04/04 02:23:24;;;;;;;7.32;4.85;;;;;;;1.57;86.11;100159.06;4995897;28;20054;-63
2022/04/04 02:25:55;;;;;;;9.43;4.80;;;;;;;1.56;85.81;100157.31;4995711;28;20491;-63
2022/04/04 02:28:23;;;;;;;11.35;4.70;;;;;;;1.61;85.86;100154.88;4995604;28;20068;-63
2022/04/04 02:30:52;;;;;;;8.68;4.88;;;;;;;1.63;85.60;100148.09;4995343;28;20046;-63
2022/04/04 02:33:25;;;;;;;48.97;15.13;;;;;;;1.65;85.67;100144.72;4995859;28;20073;-63
2022/04/04 02:35:54;;;;;;;10.95;5.32;;;;;;;1.66;85.71;100143.91;4995825;28;20050;-63
2022/04/04 02:38:24;;;;;;;8.93;4.72;;;;;;;1.67;85.57;100135.41;4998467;28;20057;-63
2022/04/04 02:40:52;;;;;;;6.50;4.60;;;;;;;1.65;85.50;100131.97;5015184;28;20046;-63
2022/04/04 02:43:21;;;;;;;8.23;4.40;;;;;;;1.65;85.42;100129.41;4998347;28;20384;-63
2022/04/04 02:45:51;;;;;;;6.63;4.25;;;;;;;1.67;85.54;100125.19;4995493;28;20058;-63
2022/04/04 02:48:21;;;;;;;8.27;4.30;;;;;;;1.65;85.60;100118.31;4995848;28;20042;-63
2022/04/04 02:50:50;;;;;;;6.50;4.47;;;;;;;1.67;85.40;100125.19;4995780;28;20101;-63
2022/04/04 02:53:17;;;;;;;9.85;4.32;;;;;;;1.67;85.34;100119.22;4992463;28;20750;-63
2022/04/04 02:58:30;;;;;;;7.80;4.07;;;;;;;1.60;85.61;100108.03;4995130;28;20160;-63
2022/04/04 03:01:00;;;;;;;7.63;4.30;;;;;;;1.62;85.80;100106.34;4995075;28;20320;-63
2022/04/04 03:03:33;;;;;;;6.63;4.20;;;;;;;1.67;85.87;100114.09;4995023;28;20058;-63
2022/04/04 03:06:01;;;;;;;6.70;4.78;;;;;;;1.66;85.97;100108.13;4995031;28;20058;-63
2022/04/04 03:08:31;;;;;;;7.50;4.53;;;;;;;1.69;86.00;100108.19;4994609;28;20057;-63
2022/04/04 03:10:59;;;;;;;8.75;4.63;;;;;;;1.71;85.98;100100.53;4995282;28;20077;-63
2022/04/04 03:13:29;;;;;;;9.35;4.10;;;;;;;1.74;85.96;100100.59;4994818;28;20050;-63
2022/04/04 03:15:57;;;;;;;7.82;4.38;;;;;;;1.73;85.91;100089.50;4994896;28;20056;-63
2022/04/04 03:18:25;;;;;;;9.68;4.80;;;;;;;1.78;85.88;100093.00;4994632;28;20050;-63
2022/04/04 03:20:54;;;;;;;7.85;4.70;;;;;;;1.80;86.07;100081.09;4994693;28;20065;-63
2022/04/04 03:23:24;;;;;;;8.13;4.43;;;;;;;1.87;86.01;100090.59;4994548;28;20094;-63
2022/04/04 03:25:52;;;;;;;8.82;4.57;;;;;;;1.89;85.66;100088.91;4994777;28;20046;-63
2022/04/04 03:28:20;;;;;;;6.10;3.85;;;;;;;1.92;85.69;100085.56;4994139;28;20065;-63
2022/04/04 03:30:48;;;;;;;7.95;4.47;;;;;;;1.97;85.63;100083.06;4994385;28;20058;-63
2022/04/04 03:33:16;;;;;;;7.80;4.15;;;;;;;1.97;85.74;100080.50;4994706;28;20117;-63
2022/04/04 03:35:44;;;;;;;7.15;4.50;;;;;;;1.96;85.42;100071.13;4994054;28;20420;-63
2022/04/04 03:38:14;;;;;;;6.28;4.30;;;;;;;1.96;85.40;100071.13;4996365;28;20061;-63
2022/04/04 03:40:42;;;;;;;10.68;4.63;;;;;;;1.95;85.40;100064.28;5013979;28;20042;-63
2022/04/04 03:43:10;;;;;;;11.73;4.70;;;;;;;1.98;85.39;100064.34;5013785;28;20053;-63
2022/04/04 03:45:40;;;;;;;10.35;4.78;;;;;;;2.00;85.19;100057.56;4998684;28;20069;-63
2022/04/04 03:48:09;;;;;;;9.00;4.90;;;;;;;2.04;85.26;100059.31;4993803;28;20050;-63
2022/04/04 03:50:37;;;;;;;7.72;4.10;;;;;;;2.07;85.22;100059.38;4994225;28;20426;-63
2022/04/04 03:53:06;;;;;;;6.65;3.67;;;;;;;2.08;85.17;100049.19;4994204;28;20061;-63
2022/04/04 03:55:43;;;;;;;7.35;4.18;;;;;;;2.12;84.59;100050.09;4994032;28;20054;-63
2022/04/04 03:58:11;;;;;;;8.00;4.28;;;;;;;2.16;84.78;100049.31;4993906;28;20116;-63
2022/04/04 04:00:42;;;;;;;5.63;3.58;;;;;;;2.16;84.36;100047.59;4993775;28;20054;-63
2022/04/04 04:03:10;;;;;;;7.82;4.13;;;;;;;2.19;84.45;100041.69;4993608;28;20494;-63
2022/04/04 04:05:38;;;;;;;9.80;3.70;;;;;;;2.20;84.59;100040.84;4993687;28;20058;-63
2022/04/04 04:08:06;;;;;;;7.47;4.03;;;;;;;2.19;84.25;100031.44;4993562;28;20084;-63
2022/04/04 04:10:36;;;;;;;9.20;3.97;;;;;;;2.21;84.72;100022.09;4993018;28;20105;-63
2022/04/04 04:13:11;;;;;;;7.30;3.83;;;;;;;2.25;84.27;100028.97;4993023;28;20064;-63
2022/04/04 04:15:39;;;;;;;5.88;3.67;;;;;;;2.25;84.48;100023.00;4993469;28;20451;-63
2022/04/04 04:18:06;;;;;;;10.20;3.65;;;;;;;2.26;84.17;100025.56;5002036;22;20496;-90
2022/04/04 04:20:34;;;;;;;6.57;3.80;;;;;;;2.34;84.21;100016.31;4977415;28;20486;-90
2022/04/04 04:23:03;;;;;;;5.82;3.30;;;;;;;2.34;83.85;100016.31;4976606;28;20046;-89
2022/04/04 04:25:32;;;;;;;6.80;3.80;;;;;;;2.39;83.97;100021.47;4974621;28;20503;-89
2022/04/04 04:28:01;;;;;;;7.72;4.03;;;;;;;2.44;83.59;100014.72;4974930;28;20374;-90
2022/04/04 04:30:29;;;;;;;6.50;4.05;;;;;;;2.46;83.91;100008.78;4974371;28;20051;-90
2022/04/04 04:32:56;;;;;;;5.88;3.53;;;;;;;2.46;83.71;100006.22;4974400;28;20491;-89
2022/04/04 04:35:23;;;;;;;12.45;4.45;;;;;;;2.46;82.90;100002.81;4974388;28;20054;-90
2022/04/04 04:37:54;;;;;;;6.28;3.78;;;;;;;2.46;83.42;100001.13;4974605;28;20054;-90
2022/04/04 04:40:21;;;;;;;5.82;3.55;;;;;;;2.48;83.47;100002.00;4974517;28;20046;-89
2022/04/04 04:42:50;;;;;;;7.95;4.00;;;;;;;2.47;83.14;99995.16;4967975;28;20051;-88
2022/04/04 04:45:18;;;;;;;6.78;4.55;;;;;;;2.51;83.33;99991.78;4968754;28;20050;-89
2022/04/04 04:47:45;;;;;;;7.43;4.45;;;;;;;2.51;83.37;99996.06;4968307;28;20059;-89
2022/04/04 04:50:14;;;;;;;5.68;3.60;;;;;;;2.51;83.41;99989.22;4954533;29;20063;-89
2022/04/04 04:52:41;;;;;;;6.45;3.50;;;;;;;2.52;83.77;99979.88;4960110;28;20530;-89
2022/04/04 04:55:09;;;;;;;5.00;3.92;;;;;;;2.58;84.35;99984.19;4974359;28;20046;-89
2022/04/04 04:57:35;;;;;;;5.43;3.55;;;;;;;2.59;83.85;99966.28;4973944;28;20389;-88
2022/04/04 05:00:04;;;;;;;5.60;3.55;;;;;;;2.63;83.41;99969.78;4974820;28;20062;-89
2022/04/04 05:02:33;;;;;;;7.43;3.53;;;;;;;2.67;83.40;99971.53;4973792;28;20051;-89
2022/04/04 05:05:00;;;;;;;7.30;4.55;;;;;;;2.70;83.68;99967.31;4977056;28;20066;-89
2022/04/04 05:07:27;;;;;;;6.82;3.75;;;;;;;2.69;83.53;99967.28;4963743;28;20059;-90
2022/04/04 05:09:54;;;;;;;10.85;3.85;;;;;;;2.72;83.44;99957.09;4965577;28;20055;-89
2022/04/04 05:12:20;;;;;;;9.27;3.85;;;;;;;2.69;83.39;99965.59;4958557;29;20062;-88
2022/04/04 05:14:47;;;;;;;8.23;4.10;;;;;;;2.83;83.19;99958.06;4958651;29;20083;-89
2022/04/04 05:17:13;;;;;;;5.10;3.35;;;;;;;2.85;83.08;99957.22;4965080;28;20058;-89
2022/04/04 05:19:41;;;;;;;6.93;3.50;;;;;;;2.86;82.70;99963.19;4973842;28;20055;-89
2022/04/04 05:22:08;;;;;;;6.25;3.65;;;;;;;2.98;82.31;99962.47;4968556;28;20051;-89
2022/04/04 05:24:35;;;;;;;8.63;3.88;;;;;;;2.91;82.59;99956.44;4966450;28;20050;-89
2022/04/04 05:27:01;;;;;;;5.55;3.60;;;;;;;3.00;82.57;99959.06;4977283;28;20042;-89
2022/04/04 05:29:28;;;;;;;6.00;3.17;;;;;;;3.07;82.23;99952.31;4971751;28;20061;-89
2022/04/04 05:31:55;;;;;;;6.30;4.03;;;;;;;3.08;81.77;99949.75;4972998;28;20051;-88
2022/04/04 05:34:25;;;;;;;6.03;3.80;;;;;;;3.14;81.43;99954.97;4977507;28;20066;-90
2022/04/04 05:36:53;;;;;;;6.88;3.58;;;;;;;3.15;81.47;99951.56;4977589;28;20073;-89
2022/04/04 05:39:20;;;;;;;4.80;3.58;;;;;;;3.25;81.67;99951.63;4977584;28;20050;-89
2022/04/04 05:41:47;;;;;;;4.43;2.88;;;;;;;3.19;81.61;99954.16;4977169;28;20051;-89
2022/04/04 05:44:14;;;;;;;5.90;2.95;;;;;;;3.19;81.00;99942.19;4976933;28;20468;-89
2022/04/04 05:46:41;;;;;;;5.47;2.30;;;;;;;3.23;80.99;99945.66;4976982;28;20050;-89
2022/04/04 05:49:07;;;;;;;5.03;3.10;;;;;;;3.24;80.79;99947.38;4977026;28;20050;-89
2022/04/04 05:51:34;;;;;;;5.75;3.70;;;;;;;3.33;80.69;99947.44;4977392;28;20051;-88
2022/04/04 05:54:02;;;;;;;5.10;2.90;;;;;;;3.31;80.61;99936.31;4977039;28;20066;-90
2022/04/04 05:56:29;;;;;;;5.30;2.85;;;;;;;3.35;80.32;99941.47;4976890;28;20063;-90
2022/04/04 05:58:56;;;;;;;6.32;3.45;;;;;;;3.41;80.70;99938.09;4977126;28;20540;-88
2022/04/04 06:01:23;;;;;;;7.70;3.17;;;;;;;3.44;80.46;99938.97;4977175;28;20054;-89
2022/04/04 06:03:50;;;;;;;3.60;2.47;;;;;;;3.46;80.66;99937.28;4976604;28;20133;-90
2022/04/04 06:06:17;;;;;;;9.23;3.72;;;;;;;3.45;80.08;99938.13;4976901;28;20058;-88
2022/04/04 06:08:44;;;;;;;5.47;3.60;;;;;;;3.44;80.13;99935.56;4977012;28;20142;-88
2022/04/04 06:11:12;;;;;;;5.53;3.28;;;;;;;3.53;80.46;99933.06;4974864;28;20083;-88
2022/04/04 06:13:39;;;;;;;4.70;3.08;;;;;;;3.67;80.16;99921.22;4969757;28;20700;-91
2022/04/04 06:16:06;;;;;;;5.20;2.78;;;;;;;3.71;80.65;99929.81;4963323;28;20145;-89
2022/04/04 06:18:34;;;;;;;3.95;2.80;;;;;;;3.72;80.35;99932.38;4973663;28;20055;-91
2022/04/04 06:21:02;;;;;;;4.22;2.30;;;;;;;3.72;80.15;99922.13;4976514;28;20420;-89
2022/04/04 06:23:29;;;;;;;5.20;3.30;;;;;;;3.76;79.68;99926.41;4977842;28;20063;-90
2022/04/04 06:25:56;;;;;;;6.93;3.58;;;;;;;3.86;79.81;99929.88;4970377;28;20401;-91
2022/04/04 06:28:24;;;;;;;3.33;2.58;;;;;;;3.77;79.51;99928.13;4976510;28;20054;-91
2022/04/04 06:30:51;;;;;;;3.88;2.20;;;;;;;3.79;79.33;99915.31;4975666;28;20086;-90
2022/04/04 06:33:18;;;;;;;4.25;3.03;;;;;;;3.86;79.18;99917.06;4975907;28;20135;-90
2022/04/04 06:35:47;;;;;;;6.13;2.58;;;;;;;3.86;79.46;99911.94;4975456;28;20484;-89
2022/04/04 06:38:18;;;;;;;5.00;3.00;;;;;;;3.92;79.33;99918.81;4975542;28;20121;-91
2022/04/04 06:40:44;;;;;;;3.17;2.03;;;;;;;3.83;79.55;99911.06;4977056;28;20050;-92
2022/04/04 06:43:11;;;;;;;6.00;3.33;;;;;;;3.85;79.64;99904.25;4976685;28;20109;-89
2022/04/04 06:45:41;;;;;;;4.97;2.90;;;;;;;3.74;79.24;99910.16;4977294;28;20061;-90
2022/04/04 06:48:09;;;;;;;5.07;2.50;;;;;;;3.72;79.23;99901.63;4978028;28;20101;-91
2022/04/04 06:50:36;;;;;;;5.30;2.63;;;;;;;3.80;79.49;99907.63;4976279;28;20082;-91
2022/04/04 06:53:03;;;;;;;5.38;2.55;;;;;;;3.78;79.46;99904.22;4977230;28;20142;-91
2022/04/04 06:55:31;;;;;;;6.55;3.10;;;;;;;3.78;79.69;99893.97;4976859;28;20142;-91
2022/04/04 06:57:58;;;;;;;5.18;3.05;;;;;;;3.84;79.46;99903.38;4977390;28;20046;-91
2022/04/04 07:00:25;;;;;;;6.78;3.38;;;;;;;3.88;79.23;99899.13;4977337;28;20227;-91
2022/04/04 07:02:55;;;;;;;4.82;2.83;;;;;;;3.92;78.61;99900.84;4977250;28;20787;-92
2022/04/04 07:05:22;;;;;;;8.98;4.25;;;;;;;3.99;79.12;99888.06;4979836;28;20054;-91
2022/04/04 07:07:51;;;;;;;4.10;2.97;;;;;;;4.01;78.52;99895.78;4996798;28;20137;-91
2022/04/04 07:10:18;;;;;;;5.43;3.20;;;;;;;4.07;77.87;99895.81;4996948;28;20054;-91
2022/04/04 07:12:45;;;;;;;4.90;2.78;;;;;;;4.17;78.21;99887.31;4998739;28;20113;-92
2022/04/04 07:15:14;;;;;;;3.63;2.47;;;;;;;4.34;76.90;99885.66;4977597;28;20054;-92
2022/04/04 07:17:42;;;;;;;4.18;2.85;;;;;;;4.42;76.41;99883.13;4959686;28;20055;-92
2022/04/04 07:20:11;;;;;;;6.72;3.13;;;;;;;4.46;76.19;99879.72;4977593;28;20129;-93
2022/04/04 07:22:40;;;;;;;7.85;3.42;;;;;;;4.64;76.52;99866.06;4976887;28;20158;-93
2022/04/04 07:25:08;;;;;;;6.40;2.40;;;;;;;4.69;74.84;99884.91;4977392;28;20078;-93
2022/04/04 07:27:35;;;;;;;5.85;3.05;;;;;;;4.74;73.92;99875.50;4977365;28;20051;-90
2022/04/04 07:30:02;;;;;;;6.45;3.33;;;;;;;4.89;74.86;99880.66;4977125;28;20122;-90
2022/04/04 07:32:29;;;;;;;4.97;3.10;;;;;;;4.94;73.76;99863.53;4976869;28;20043;-92
2022/04/04 07:34:57;;;;;;;4.40;2.60;;;;;;;4.95;73.40;99890.09;4976934;28;20089;-94
2022/04/04 07:37:25;;;;;;;7.07;2.70;;;;;;;4.90;73.38;99861.81;4977477;28;20501;-92
2022/04/04 07:39:52;;;;;;;5.28;2.97;;;;;;;4.91;73.55;99873.81;4977506;28;20146;-92
2022/04/04 07:42:19;;;;;;;5.40;2.78;;;;;;;4.79;74.05;99875.50;4976739;28;20059;-89
2022/04/04 07:44:45;;;;;;;3.85;2.40;;;;;;;4.80;73.58;99875.50;4977194;28;20145;-90
2022/04/04 07:47:12;;;;;;;9.02;3.20;;;;;;;4.83;73.80;99866.97;4980481;28;20440;-89
2022/04/04 07:49:39;;;;;;;5.45;2.92;;;;;;;4.88;73.55;99862.69;4985161;28;20077;-90
2022/04/04 07:52:06;;;;;;;6.70;3.97;;;;;;;4.91;73.52;99873.81;4984345;28;20077;-90
2022/04/04 07:54:34;;;;;;;6.25;2.80;;;;;;;4.98;73.13;99869.53;4985943;28;20093;-90
2022/04/04 07:57:01;;;;;;;5.75;2.90;;;;;;;4.93;71.98;99876.38;4984684;28;20130;-90
2022/04/04 07:59:28;;;;;;;5.53;2.83;;;;;;;4.89;71.49;99872.09;4979799;28;20140;-90
2022/04/04 08:01:54;;;;;;;5.35;3.00;;;;;;;4.84;71.98;99877.22;4978491;28;20133;-90
2022/04/04 08:04:21;;;;;;;6.18;3.05;;;;;;;4.68;71.72;99872.91;4978686;28;20086;-90
2022/04/04 08:06:48;;;;;;;6.20;3.70;;;;;;;4.65;72.05;99881.47;4978135;28;20105;-90
2022/04/04 08:09:15;;;;;;;5.35;3.28;;;;;;;4.58;72.40;99876.31;4977965;28;20050;-93
2022/04/04 08:11:43;;;;;;;7.68;3.50;;;;;;;4.57;72.61;99861.75;4978294;28;20050;-91
2022/04/04 08:14:11;;;;;;;5.47;2.88;;;;;;;4.44;73.15;99858.31;4979214;28;20082;-93
2022/04/04 08:16:38;;;;;;;7.15;3.50;;;;;;;4.53;72.90;99862.63;4978927;28;20110;-93
2022/04/04 08:19:05;;;;;;;7.07;4.25;;;;;;;4.60;72.92;99866.91;4962920;28;20086;-92
2022/04/04 08:21:32;;;;;;;5.97;2.67;;;;;;;4.60;72.39;99866.91;4958545;28;20062;-91
2022/04/04 08:23:58;;;;;;;6.90;3.05;;;;;;;4.63;72.58;99856.63;4959626;29;20055;-91
2022/04/04 08:26:26;;;;;;;6.53;3.60;;;;;;;4.70;72.78;99859.25;4959784;29;20051;-91
2022/04/04 08:28:54;;;;;;;5.68;3.03;;;;;;;4.79;71.62;99860.97;4967630;28;20054;-90
2022/04/04 08:31:20;;;;;;;6.93;3.40;;;;;;;4.83;71.04;99860.13;4971269;28;20055;-93
2022/04/04 08:33:47;;;;;;;5.03;2.70;;;;;;;4.84;70.68;99841.28;4971523;28;20507;-92
2022/04/04 08:36:14;;;;;;;6.38;2.80;;;;;;;4.90;69.39;99840.44;4978781;28;20487;-92
2022/04/04 08:38:41;;;;;;;6.90;2.60;;;;;;;4.87;69.72;99846.41;4980332;28;20055;-92
2022/04/04 08:41:10;;;;;;;6.85;3.65;;;;;;;5.01;69.47;99833.56;4979160;28;20071;-93
2022/04/04 08:43:42;;;;;;;5.63;3.08;;;;;;;5.15;68.84;99820.72;4979254;28;20061;-92
2022/04/04 08:46:11;;;;;;;6.00;3.13;;;;;;;5.36;68.07;99833.56;4978803;28;20057;-91
2022/04/04 08:48:40;;;;;;;7.65;3.15;;;;;;;5.62;68.64;99812.94;4978915;28;20051;-92
2022/04/04 08:51:08;;;;;;;6.00;2.42;;;;;;;5.81;66.09;99813.75;4979044;28;20054;-91
2022/04/04 08:53:36;;;;;;;6.72;2.67;;;;;;;6.05;65.94;99793.09;4974064;28;20050;-92
2022/04/04 08:56:04;;;;;;;11.30;3.22;;;;;;;6.22;65.37;99811.84;4978548;28;20093;-91
2022/04/04 08:58:31;;;;;;;7.70;3.72;;;;;;;6.33;64.12;99809.25;4978620;28;20416;-90
2022/04/04 09:00:59;;;;;;;7.13;2.28;;;;;;;6.43;63.26;99804.91;4979747;28;20074;-89
2022/04/04 09:03:30;;;;;;;7.75;2.00;;;;;;;6.61;63.41;99804.75;4978619;28;20086;-90
2022/04/04 09:05:59;;;;;;;8.95;2.63;;;;;;;6.72;62.71;99782.34;4977303;28;20106;-91
2022/04/04 09:08:28;;;;;;;4.97;2.13;;;;;;;6.93;62.09;99781.34;4971489;28;20126;-90
2022/04/04 09:10:57;;;;;;;12.43;4.00;;;;;;;7.09;61.51;99776.91;4967439;28;20054;-91
2022/04/04 09:13:25;;;;;;;5.45;2.30;;;;;;;7.25;60.29;99778.47;4978074;28;20050;-91
2022/04/04 09:15:57;;;;;;;5.88;2.90;;;;;;;7.37;60.73;99768.03;4977316;28;20504;-92
2022/04/04 09:18:56;;;;;;;5.15;2.45;;;;;;;7.45;59.68;99765.38;4977907;28;20058;-91
2022/04/04 09:21:40;;;;;;;4.22;1.90;;;;;;;7.28;58.95;99762.97;4978482;28;20055;-91
2022/04/04 09:24:11;;;;;;;5.57;2.30;;;;;;;7.17;58.91;99744.19;4978325;28;20047;-91
2022/04/04 09:26:39;;;;;;;4.28;1.90;;;;;;;7.19;59.13;99763.06;4978351;28;20050;-90
2022/04/04 09:29:14;;;;;;;4.60;1.95;;;;;;;7.22;58.94;99752.72;4972401;28;20071;-92
2022/04/04 09:31:54;;;;;;;8.68;2.88;;;;;;;7.33;58.55;99740.59;4977425;28;20125;-91
2022/04/04 09:34:20;;;;;;;3.42;1.92;;;;;;;7.38;58.29;99738.81;4977851;28;20154;-91
2022/04/04 09:36:49;;;;;;;17.63;2.25;;;;;;;7.33;57.95;99725.13;4978483;28;20130;-92
2022/04/04 09:39:17;;;;;;;5.03;2.40;;;;;;;7.53;58.01;99725.75;4977801;28;20081;-91
2022/04/04 09:41:44;;;;;;;6.47;2.10;;;;;;;7.71;57.55;99716.91;4977898;28;20081;-91
2022/04/04 09:44:12;;;;;;;4.32;1.70;;;;;;;7.87;55.39;99707.25;4979707;28;20138;-92
2022/04/04 09:46:42;;;;;;;6.35;1.77;;;;;;;8.12;55.25;99693.13;4978675;28;20042;-91
2022/04/04 09:49:13;;;;;;;3.80;1.70;;;;;;;8.29;54.74;99705.78;4981736;28;20824;-93
2022/04/04 09:51:42;;;;;;;3.25;1.48;;;;;;;8.35;53.22;99694.56;4982343;28;20464;-92
2022/04/04 09:54:14;;;;;;;4.03;1.65;;;;;;;8.26;51.79;99690.31;4981696;28;20074;-91
2022/04/04 09:56:41;;;;;;;7.60;2.05;;;;;;;8.09;52.08;99698.34;4981848;28;20059;-92
2022/04/04 09:59:12;;;;;;;6.53;1.73;;;;;;;8.12;52.80;99687.09;4982547;28;20043;-93
2022/04/04 10:01:40;;;;;;;7.60;3.17;;;;;;;8.13;52.12;99676.75;4982285;28;20062;-92
2022/04/04 10:04:08;;;;;;;7.38;1.70;;;;;;;8.26;52.32;99694.63;4981924;28;20370;-92
2022/04/04 10:06:36;;;;;;;5.18;2.97;;;;;;;8.31;51.64;99682.50;4982488;28;20074;-93
2022/04/04 10:09:05;;;;;;;3.75;1.90;;;;;;;8.37;51.10;99652.34;4984724;28;20054;-91
2022/04/04 10:11:35;;;;;;;13.43;4.47;;;;;;;8.42;50.83;99670.34;4963617;29;20142;-90
2022/04/04 10:14:02;;;;;;;5.10;2.10;;;;;;;8.32;50.05;99660.97;4998174;28;20042;-89
2022/04/04 10:16:30;;;;;;;7.00;1.90;;;;;;;8.35;49.95;99648.09;5006334;28;20046;-89
2022/04/04 10:18:57;;;;;;;5.80;1.90;;;;;;;8.33;48.81;99629.16;4999125;28;20062;-90
2022/04/04 10:21:25;;;;;;;8.13;1.95;;;;;;;8.31;48.68;99636.03;4992817;28;20034;-90
2022/04/04 10:23:55;;;;;;;3.70;1.70;;;;;;;8.33;49.47;99629.16;4998326;28;20038;-94
2022/04/04 10:26:26;;;;;;;3.45;1.75;;;;;;;8.48;49.23;99629.75;5001397;28;20062;-93
2022/04/04 10:29:09;;;;;;;6.82;2.28;;;;;;;8.68;48.54;99620.81;5000838;28;20058;-93
2022/04/04 10:31:44;;;;;;;4.18;2.17;;;;;;;8.60;46.84;99628.69;4995668;28;20480;-89
2022/04/04 10:34:16;;;;;;;8.37;1.87;;;;;;;8.68;46.80;99621.66;4998625;28;20057;-88
2022/04/04 10:37:08;;;;;;;7.45;2.13;;;;;;;8.65;45.73;99606.19;5010697;28;20057;-89
2022/04/04 10:39:44;;;;;;;4.97;2.50;;;;;;;8.50;46.45;99601.31;5002291;28;20022;-90
2022/04/04 10:42:28;;;;;;;9.77;4.15;;;;;;;8.60;46.69;99605.44;5006013;28;20046;-91
2022/04/04 10:45:04;;;;;;;3.63;1.58;;;;;;;8.71;46.04;99600.06;5000973;28;20046;-91
2022/04/04 10:47:31;;;;;;;9.88;2.90;;;;;;;8.85;47.15;99598.97;5001176;28;20066;-90
2022/04/04 10:50:17;;;;;;;8.13;2.72;;;;;;;8.97;46.40;99586.66;5001280;28;20043;-90
2022/04/04 10:52:45;;;;;;;8.82;2.70;;;;;;;9.11;46.04;99585.50;5001146;28;20027;-90
2022/04/04 10:55:43;;;;;;;7.53;1.70;;;;;;;8.79;45.22;99582.69;4990758;28;20047;-90
2022/04/04 10:58:20;;;;;;;7.30;3.13;;;;;;;8.77;45.30;99580.13;4982962;28;20078;-90
2022/04/04 11:01:05;;;;;;;11.45;4.95;;;;;;;8.63;45.54;99564.06;5001075;28;20074;-91
2022/04/04 11:03:34;;;;;;;7.85;2.42;;;;;;;8.56;45.16;99570.22;5000568;28;20039;-90
2022/04/04 11:09:08;;;;;;;15.35;4.00;;;;;;;8.40;45.55;99584.28;5001005;28;20066;-90
2022/04/04 11:11:42;;;;;;;4.63;1.70;;;;;;;8.43;45.66;99548.09;4999023;28;20026;-87
2022/04/04 11:14:08;;;;;;;6.00;1.70;;;;;;;8.39;45.72;99547.28;4999435;28;20034;-90
2022/04/04 11:17:08;;;;;;;4.15;1.42;;;;;;;8.56;45.34;99539.22;5000605;28;20039;-89
2022/04/04 11:19:45;;;;;;;9.52;2.13;;;;;;;8.46;44.95;99529.94;5000018;28;20039;-90
2022/04/04 11:22:14;;;;;;;11.07;5.45;;;;;;;8.52;45.05;99532.41;5000267;28;20062;-91
2022/04/04 11:24:42;;;;;;;8.88;1.60;;;;;;;8.53;44.69;99503.13;5005399;28;20065;-91
2022/04/04 11:27:09;;;;;;;4.93;1.25;;;;;;;8.64;44.35;99498.59;5019967;28;20081;-91
2022/04/04 11:29:39;;;;;;;3.05;1.40;;;;;;;8.64;44.30;99485.66;5012045;28;20053;-90
2022/04/04 11:32:08;;;;;;;11.10;2.05;;;;;;;8.73;44.01;99500.97;5000502;28;20054;-90
2022/04/04 11:34:37;;;;;;;4.13;1.98;;;;;;;8.87;43.93;99486.94;4997349;28;20077;-91
2022/04/04 11:37:06;;;;;;;3.53;1.55;;;;;;;9.04;43.42;99485.69;4993714;28;20039;-93
2022/04/04 11:39:35;;;;;;;8.32;1.33;;;;;;;9.11;43.13;99491.56;5000202;28;20058;-92
2022/04/04 11:42:02;;;;;;;6.40;1.67;;;;;;;9.07;42.82;99489.94;4992638;28;20094;-90
2022/04/04 11:44:32;;;;;;;6.93;1.63;;;;;;;8.78;42.58;99478.47;4991328;28;20480;-91
2022/04/04 11:47:05;;;;;;;3.22;1.20;;;;;;;8.95;42.19;99469.53;4995293;28;20035;-90
2022/04/04 11:49:35;;;;;;;7.88;1.75;;;;;;;9.03;41.71;99457.31;4999373;28;20050;-91
2022/04/04 11:52:04;;;;;;;3.65;1.20;;;;;;;9.04;41.58;99443.50;4999128;28;20109;-92
2022/04/04 11:54:41;;;;;;;2.53;1.02;;;;;;;9.11;41.37;99439.88;4999977;28;20047;-92
2022/04/04 11:57:08;;;;;;;3.58;1.00;;;;;;;8.97;40.79;99441.94;4999693;28;20043;-92